Time;durP1;ratioP1;P1;durP2;ratioP2;P2;SDS_P1;SDS_P2;PMS_P1;PMS_P2;Temp;Humidity;BMP_temperature;BMP_pressure;BME280_temperature;BME280_humidity;BME280_pressure;Samples;Min_cycle;Max_cycle;Signal;HPM_P1;HPM_P2
2022/05/13 00:02:00;;;;;;;2.53;2.43;;;;;;;18.34;72.30;99715.84;5020015;28;20577;-61
2022/05/13 00:04:27;;;;;;;3.20;3.10;;;;;;;18.27;73.52;99717.09;5021793;28;20701;-61
2022/05/13 00:06:54;;;;;;;3.67;3.37;;;;;;;18.03;74.01;99698.53;5021326;28;20221;-61
2022/05/13 00:09:21;;;;;;;3.90;3.70;;;;;;;18.06;74.21;99710.53;5013430;28;20209;-61
2022/05/13 00:11:48;;;;;;;4.10;3.80;;;;;;;17.94;74.05;99709.44;5021686;28;20242;-61
2022/05/13 00:14:17;;;;;;;4.43;4.17;;;;;;;17.82;74.08;99712.72;5018994;28;20202;-61
2022/05/13 00:16:43;;;;;;;4.20;4.00;;;;;;;17.74;74.86;99707.09;5021294;28;20194;-61
2022/05/13 00:19:11;;;;;;;4.23;4.03;;;;;;;17.63;75.31;99712.88;5020537;28;20205;-61
2022/05/13 00:21:38;;;;;;;9.83;4.27;;;;;;;17.53;75.37;99698.69;5022120;28;20206;-61
2022/05/13 00:24:05;;;;;;;4.47;4.03;;;;;;;17.47;76.12;99696.44;5019456;28;20252;-62
2022/05/13 00:26:32;;;;;;;4.77;4.40;;;;;;;17.47;76.54;99700.78;5017081;28;20210;-61
2022/05/13 00:28:59;;;;;;;3.70;3.50;;;;;;;17.51;76.15;99703.13;5020381;28;20581;-61
2022/05/13 00:31:28;;;;;;;4.10;3.90;;;;;;;17.48;75.99;99703.28;5015150;28;20276;-61
2022/05/13 00:33:55;;;;;;;4.10;3.90;;;;;;;17.41;76.30;99706.28;5016529;28;20244;-61
2022/05/13 00:36:22;;;;;;;3.97;3.77;;;;;;;17.35;75.75;99701.44;5024850;28;20214;-61
2022/05/13 00:38:49;;;;;;;4.53;4.23;;;;;;;17.31;76.15;99705.94;5021209;28;20198;-60
2022/05/13 00:41:16;;;;;;;5.77;3.70;;;;;;;17.05;75.98;99657.25;5016547;28;20582;-60
2022/05/13 00:43:46;;;;;;;3.97;3.57;;;;;;;17.36;75.87;99701.34;5017728;28;20677;-61
2022/05/13 00:46:13;;;;;;;4.00;3.80;;;;;;;17.33;75.50;99704.94;5027523;28;20197;-61
2022/05/13 00:48:42;;;;;;;4.13;3.90;;;;;;;17.31;75.45;99705.94;5012727;28;20209;-60
2022/05/13 00:51:11;;;;;;;4.03;3.83;;;;;;;17.30;75.81;99705.09;5018538;28;20209;-61
2022/05/13 00:53:38;;;;;;;4.00;3.80;;;;;;;17.27;76.29;99709.63;5027071;28;20255;-60
2022/05/13 00:56:06;;;;;;;4.13;3.60;;;;;;;17.24;76.57;99712.38;5025791;28;20720;-61
2022/05/13 00:58:36;;;;;;;4.00;3.80;;;;;;;17.16;75.99;99717.94;5028913;28;20874;-61
2022/05/13 01:01:03;;;;;;;3.00;2.80;;;;;;;17.07;76.12;99707.22;5026735;28;20189;-61
2022/05/13 01:03:31;;;;;;;3.60;3.40;;;;;;;16.99;75.88;99686.06;5028593;28;20673;-61
2022/05/13 01:06:04;;;;;;;2.97;2.87;;;;;;;16.99;75.85;99705.03;5029622;28;20208;-61
2022/05/13 01:08:32;;;;;;;3.20;3.00;;;;;;;16.92;76.12;99697.66;5018432;28;20575;-61
2022/05/13 01:11:02;;;;;;;3.53;3.33;;;;;;;16.82;76.72;99692.09;5023911;28;20638;-60
2022/05/13 01:13:31;;;;;;;3.60;3.40;;;;;;;16.75;77.18;99696.75;5026877;28;20268;-61
2022/05/13 01:15:58;;;;;;;5.20;3.67;;;;;;;16.68;77.66;99705.75;5024472;28;20673;-61
2022/05/13 01:18:28;;;;;;;3.47;3.07;;;;;;;16.63;78.23;99693.94;5029130;28;20194;-61
2022/05/13 01:20:55;;;;;;;3.90;3.70;;;;;;;16.61;78.54;99698.34;5030003;28;20195;-61
2022/05/13 01:23:26;;;;;;;3.87;3.67;;;;;;;16.60;78.62;99700.13;5024040;28;20212;-61
2022/05/13 01:25:55;;;;;;;3.53;3.43;;;;;;;16.63;78.78;99697.38;5029125;28;20201;-61
2022/05/13 01:28:25;;;;;;;3.80;3.53;;;;;;;16.60;78.79;99694.94;5018678;28;20233;-61
2022/05/13 01:30:58;;;;;;;4.27;3.97;;;;;;;16.65;78.39;99707.66;5010948;28;20198;-60
2022/05/13 01:33:26;;;;;;;3.47;3.33;;;;;;;16.54;78.26;99686.63;5024778;28;20543;-61
2022/05/13 01:35:56;;;;;;;3.53;3.43;;;;;;;16.54;78.59;99695.19;5023378;28;20200;-61
2022/05/13 01:38:27;;;;;;;3.80;3.50;;;;;;;16.39;79.41;99693.38;5012829;28;20647;-61
2022/05/13 01:40:54;;;;;;;3.80;3.50;;;;;;;16.29;79.79;99689.56;5020081;28;20205;-60
2022/05/13 01:43:21;;;;;;;3.50;3.40;;;;;;;16.25;80.14;99693.22;5023509;28;20205;-60
2022/05/13 01:45:49;;;;;;;3.50;3.30;;;;;;;16.24;80.44;99683.78;5021497;28;20197;-61
2022/05/13 01:48:17;;;;;;;4.03;3.67;;;;;;;16.13;80.99;99673.09;5022517;28;20210;-61
2022/05/13 01:50:44;;;;;;;3.83;3.63;;;;;;;16.24;80.22;99683.78;5016435;28;20189;-60
2022/05/13 01:53:11;;;;;;;4.43;4.13;;;;;;;16.19;80.16;99683.16;5019483;28;20585;-61
2022/05/13 01:55:42;;;;;;;4.07;3.87;;;;;;;16.21;80.04;99683.94;5020520;28;20236;-61
2022/05/13 01:58:09;;;;;;;3.77;3.47;;;;;;;16.20;80.20;99687.41;5020707;28;20202;-61
2022/05/13 02:00:36;;;;;;;3.43;3.33;;;;;;;16.15;80.30;99679.06;5015309;28;20202;-60
2022/05/13 02:05:47;;;;;;;5.10;4.53;;;;;;;16.04;80.40;99681.31;5015794;28;20208;-60
2022/05/13 02:08:15;;;;;;;4.17;3.97;;;;;;;16.01;80.64;99676.28;5018036;28;20217;-61
2022/05/13 02:10:44;;;;;;;8.57;4.63;;;;;;;15.98;81.28;99687.63;5017549;28;20213;-61
2022/05/13 02:13:12;;;;;;;4.07;3.87;;;;;;;15.98;81.28;99676.44;5016190;28;20195;-61
2022/05/13 02:15:39;;;;;;;4.30;4.10;;;;;;;15.99;81.57;99694.47;5018176;28;20206;-61
2022/05/13 02:18:06;;;;;;;3.67;3.47;;;;;;;15.98;81.66;99691.94;5025566;28;20599;-61
2022/05/13 02:20:33;;;;;;;4.27;3.90;;;;;;;16.00;82.09;99690.13;5022034;28;20688;-61
2022/05/13 02:23:00;;;;;;;4.37;4.17;;;;;;;16.02;81.91;99688.31;5020777;28;20662;-61
2022/05/13 02:25:28;;;;;;;3.97;3.77;;;;;;;16.02;81.81;99693.50;5016658;28;20203;-60
2022/05/13 02:27:56;;;;;;;3.77;3.37;;;;;;;15.99;81.53;99675.53;5020882;28;20214;-61
2022/05/13 02:30:23;;;;;;;4.37;3.97;;;;;;;16.06;81.72;99679.47;5011581;28;20644;-61
2022/05/13 02:32:50;;;;;;;3.87;3.67;;;;;;;16.09;81.82;99679.38;5025754;28;20297;-60
2022/05/13 02:35:17;;;;;;;4.40;4.00;;;;;;;16.07;82.25;99686.34;5011551;28;20211;-60
2022/05/13 02:37:44;;;;;;;4.27;3.87;;;;;;;15.96;82.76;99678.28;5013163;28;20208;-61
2022/05/13 02:40:13;;;;;;;4.33;4.03;;;;;;;15.99;82.64;99689.31;5023906;28;20208;-60
2022/05/13 02:42:39;;;;;;;4.17;3.97;;;;;;;15.97;83.02;99695.44;5023576;28;20198;-61
2022/05/13 02:45:10;;;;;;;4.53;4.23;;;;;;;15.96;83.11;99689.44;5026737;28;20226;-60
2022/05/13 02:47:37;;;;;;;3.83;3.63;;;;;;;15.95;83.03;99692.09;5024857;28;20271;-60
2022/05/13 02:50:21;;;;;;;3.67;3.47;;;;;;;15.96;83.30;99694.59;5013257;28;20563;-60
2022/05/13 02:52:49;;;;;;;3.70;3.50;;;;;;;15.96;83.61;99699.78;5020128;28;20201;-60
2022/05/13 02:55:16;;;;;;;3.63;3.53;;;;;;;15.87;83.60;99681.25;5021601;28;20737;-61
2022/05/13 02:57:44;;;;;;;3.93;3.73;;;;;;;15.96;83.84;99698.97;5022457;28;20205;-60
2022/05/13 03:00:14;;;;;;;4.23;3.90;;;;;;;15.96;83.92;99693.78;5027342;28;20200;-61
2022/05/13 03:02:40;;;;;;;4.87;4.47;;;;;;;15.96;83.96;99698.97;5024422;28;20692;-61
2022/05/13 03:05:08;;;;;;;4.00;3.80;;;;;;;15.91;84.33;99698.31;5012276;28;20216;-61
2022/05/13 03:07:35;;;;;;;4.07;3.77;;;;;;;15.79;84.32;99696.31;5019552;28;20578;-61
2022/05/13 03:10:02;;;;;;;4.33;4.03;;;;;;;15.79;85.19;99702.34;5017449;28;20209;-61
2022/05/13 03:12:29;;;;;;;4.37;4.07;;;;;;;15.79;85.35;99709.25;5029269;28;20198;-60
2022/05/13 03:14:55;;;;;;;4.00;3.80;;;;;;;15.75;85.58;99706.81;5024945;28;20596;-60
2022/05/13 03:17:24;;;;;;;4.10;3.80;;;;;;;15.73;85.78;99702.63;5030036;28;20209;-60
2022/05/13 03:19:50;;;;;;;4.07;3.87;;;;;;;15.71;86.01;99700.09;5032358;28;20193;-60
2022/05/13 03:22:17;;;;;;;3.97;3.67;;;;;;;15.72;86.62;99706.94;5030991;28;20696;-60
2022/05/13 03:24:44;;;;;;;4.07;3.87;;;;;;;15.69;86.81;99707.09;5031478;28;20205;-60
2022/05/13 03:27:11;;;;;;;4.57;4.37;;;;;;;15.71;86.87;99700.09;5029389;28;20251;-60
2022/05/13 03:29:38;;;;;;;5.43;4.67;;;;;;;15.71;86.58;99704.41;5018885;28;20206;-61
2022/05/13 03:32:05;;;;;;;3.80;3.60;;;;;;;15.74;86.66;99718.03;5020258;28;20202;-61
2022/05/13 03:34:34;;;;;;;3.67;3.47;;;;;;;15.79;86.69;99717.00;5017903;28;20666;-61
2022/05/13 03:37:01;;;;;;;5.70;3.87;;;;;;;15.85;86.92;99722.72;5020062;28;20573;-60
2022/05/13 03:39:28;;;;;;;4.07;3.80;;;;;;;15.93;86.33;99719.78;5016943;28;20571;-61
2022/05/13 03:41:54;;;;;;;4.30;4.00;;;;;;;16.02;86.10;99724.53;5021490;28;20626;-61
2022/05/13 03:44:22;;;;;;;4.60;4.30;;;;;;;16.13;86.19;99722.25;5025347;28;20211;-61
2022/05/13 03:46:49;;;;;;;4.33;4.13;;;;;;;16.25;86.30;99726.88;5022755;28;20209;-61
2022/05/13 03:49:16;;;;;;;5.90;4.37;;;;;;;16.36;85.79;99724.56;5020026;28;20217;-61
2022/05/13 03:51:44;;;;;;;4.33;4.03;;;;;;;16.50;85.18;99722.16;5020303;28;20213;-61
2022/05/13 03:54:11;;;;;;;5.03;4.33;;;;;;;16.65;84.29;99734.38;5020054;28;20198;-61
2022/05/13 03:56:38;;;;;;;4.50;4.13;;;;;;;16.78;83.54;99735.44;5021620;28;20585;-61
2022/05/13 03:59:05;;;;;;;4.00;3.70;;;;;;;16.92;82.29;99739.09;5028197;28;20547;-61
2022/05/13 04:01:32;;;;;;;4.77;4.37;;;;;;;17.01;81.27;99739.47;5026918;28;20758;-61
2022/05/13 04:03:59;;;;;;;4.20;3.97;;;;;;;17.12;81.17;99744.09;5028822;28;20239;-61
2022/05/13 04:09:11;;;;;;;3.77;3.57;;;;;;;17.39;81.41;99753.03;5019235;28;20272;-61
2022/05/13 04:11:40;;;;;;;3.93;3.73;;;;;;;17.58;81.38;99758.94;5018259;28;20202;-61
2022/05/13 04:17:04;;;;;;;5.10;4.47;;;;;;;18.03;78.97;99762.59;4980437;28;20199;-61
2022/05/13 04:19:31;;;;;;;4.80;4.50;;;;;;;18.26;77.42;99759.53;5007007;28;20206;-61
2022/05/13 04:21:58;;;;;;;4.87;4.50;;;;;;;18.46;77.49;99761.84;5018916;28;20217;-61
2022/05/13 04:24:26;;;;;;;4.60;4.30;;;;;;;18.72;76.19;99760.41;5019195;28;20210;-61
2022/05/13 04:26:53;;;;;;;4.73;4.53;;;;;;;18.93;75.35;99771.31;5017978;28;20240;-61
2022/05/13 04:29:20;;;;;;;4.63;4.20;;;;;;;19.16;74.26;99773.41;5012595;28;20706;-61
2022/05/13 04:31:47;;;;;;;5.67;4.60;;;;;;;19.41;73.58;99765.84;5014848;28;20209;-61
2022/05/13 04:34:14;;;;;;;3.67;3.57;;;;;;;19.68;72.00;99782.34;5016583;28;20670;-61
2022/05/13 04:36:41;;;;;;;6.07;4.60;;;;;;;19.93;71.33;99773.88;5026564;28;20212;-61
2022/05/13 04:39:08;;;;;;;4.93;4.63;;;;;;;20.13;69.65;99767.41;5027075;28;20586;-61
2022/05/13 04:44:21;;;;;;;4.63;4.43;;;;;;;20.66;66.46;99772.63;5028345;28;20380;-61
2022/05/13 04:46:48;;;;;;;4.40;4.20;;;;;;;20.83;65.77;99768.91;5029739;28;20204;-61
2022/05/13 04:49:15;;;;;;;4.20;4.00;;;;;;;21.10;64.55;99774.09;5019065;28;20221;-61
2022/05/13 04:51:42;;;;;;;4.13;3.93;;;;;;;21.23;63.63;99770.53;5028929;28;20206;-62
2022/05/13 04:54:09;;;;;;;4.37;4.10;;;;;;;21.42;62.52;99767.53;5020600;28;20665;-61
2022/05/13 04:56:38;;;;;;;4.20;3.90;;;;;;;21.52;61.86;99784.19;5023365;28;20205;-61
2022/05/13 04:59:05;;;;;;;5.13;4.73;;;;;;;21.68;61.41;99784.78;5029456;28;20199;-62
2022/05/13 05:01:32;;;;;;;4.23;3.93;;;;;;;21.81;61.57;99785.63;5014883;28;20215;-61
2022/05/13 05:03:58;;;;;;;4.13;3.77;;;;;;;22.00;61.65;99790.44;5029518;28;20199;-61
2022/05/13 05:06:25;;;;;;;4.40;3.53;;;;;;;22.23;61.43;99794.81;5025744;28;20215;-62
2022/05/13 05:08:53;;;;;;;5.10;4.70;;;;;;;22.43;60.36;99796.00;5022058;28;20219;-62
2022/05/13 05:11:20;;;;;;;6.70;4.00;;;;;;;22.70;59.82;99791.41;5026420;28;20200;-61
2022/05/13 05:13:50;;;;;;;9.07;5.10;;;;;;;22.90;58.23;99793.38;5026607;28;20196;-61
2022/05/13 05:16:19;;;;;;;4.47;4.10;;;;;;;23.17;57.90;99802.69;5028518;28;20767;-62
2022/05/13 05:18:46;;;;;;;4.53;4.13;;;;;;;23.39;57.67;99805.38;5028297;28;20296;-62
2022/05/13 05:21:13;;;;;;;4.60;3.83;;;;;;;23.60;56.63;99803.75;5016770;28;20198;-62
2022/05/13 05:23:43;;;;;;;4.63;4.30;;;;;;;23.85;56.85;99803.50;5024436;28;20206;-61
2022/05/13 05:26:10;;;;;;;4.10;3.80;;;;;;;23.91;54.22;99808.25;5013440;28;20584;-62
2022/05/13 05:28:38;;;;;;;3.53;2.93;;;;;;;24.04;52.20;99800.25;5014855;28;20640;-61
2022/05/13 05:31:07;;;;;;;3.30;3.20;;;;;;;24.31;52.00;99805.13;5015730;28;20205;-62
2022/05/13 05:33:35;;;;;;;16.10;5.97;;;;;;;24.44;52.96;99803.19;5012968;28;20205;-62
2022/05/13 05:36:02;;;;;;;4.23;3.63;;;;;;;24.59;51.74;99798.50;5017569;28;20654;-62
2022/05/13 05:38:29;;;;;;;5.33;3.33;;;;;;;24.68;51.94;99803.81;5021072;28;20686;-62
2022/05/13 05:40:57;;;;;;;3.17;3.03;;;;;;;24.91;51.03;99800.13;5015228;28;20209;-62
2022/05/13 05:43:24;;;;;;;4.23;3.93;;;;;;;25.16;50.82;99803.34;5016280;28;20217;-62
2022/05/13 05:45:51;;;;;;;3.93;3.83;;;;;;;25.36;51.63;99794.63;5021515;28;20228;-62
2022/05/13 05:48:22;;;;;;;3.60;3.40;;;;;;;25.48;50.43;99793.59;5016695;28;20218;-62
2022/05/13 05:50:50;;;;;;;4.10;3.90;;;;;;;25.64;51.19;99791.34;5018225;28;20206;-62
2022/05/13 05:57:13;;;;;;;4.37;3.97;;;;;;;25.81;49.27;99795.97;5009000;28;20208;-62
2022/05/13 05:58:52;;;;;;;3.80;3.40;;;;;;;25.90;48.68;99789.91;5012683;28;20578;-61
2022/05/13 06:01:19;;;;;;;3.63;3.43;;;;;;;25.90;48.98;99784.66;5013565;28;20585;-63
2022/05/13 06:03:48;;;;;;;4.30;3.97;;;;;;;25.95;50.07;99782.44;5009062;28;20217;-63
2022/05/13 06:06:14;;;;;;;4.13;3.93;;;;;;;25.88;49.72;99791.81;5010407;28;20586;-62
2022/05/13 06:08:42;;;;;;;3.73;3.53;;;;;;;25.98;48.87;99797.09;5015221;28;20218;-63
2022/05/13 06:11:10;;;;;;;3.83;3.50;;;;;;;26.16;48.17;99795.53;5015664;28;20209;-63
2022/05/13 06:13:37;;;;;;;3.60;3.30;;;;;;;26.37;47.88;99788.38;5015671;28;20335;-63
2022/05/13 06:16:07;;;;;;;3.57;3.37;;;;;;;26.57;47.48;99792.69;5007853;28;20212;-62
2022/05/13 06:18:35;;;;;;;3.73;3.53;;;;;;;26.68;45.72;99796.97;5010614;28;20250;-63
2022/05/13 06:21:03;;;;;;;3.77;3.47;;;;;;;26.80;47.57;99793.22;5009825;28;20213;-63
2022/05/13 06:23:30;;;;;;;3.13;3.03;;;;;;;26.96;47.07;99792.69;5009209;28;20304;-66
2022/05/13 06:25:57;;;;;;;3.23;3.07;;;;;;;27.06;45.83;99786.44;5009382;28;20210;-62
2022/05/13 06:28:25;;;;;;;3.90;3.53;;;;;;;27.32;48.11;99780.56;5012232;28;20236;-64
2022/05/13 06:30:52;;;;;;;3.90;3.60;;;;;;;27.41;46.22;99784.97;5011966;28;20586;-63
2022/05/13 06:33:19;;;;;;;3.53;3.33;;;;;;;27.58;45.87;99786.88;5012662;28;20210;-64
2022/05/13 06:35:46;;;;;;;3.27;3.00;;;;;;;27.64;43.88;99773.13;5013145;28;20678;-64
2022/05/13 06:38:20;;;;;;;3.37;3.13;;;;;;;27.95;47.32;99785.00;5008365;28;20220;-64
2022/05/13 06:40:47;;;;;;;3.00;2.47;;;;;;;28.14;45.27;99784.94;5010428;28;20233;-64
2022/05/13 06:43:14;;;;;;;2.70;2.50;;;;;;;28.30;42.89;99783.47;5012670;28;20292;-63
2022/05/13 06:45:41;;;;;;;4.33;3.40;;;;;;;28.34;42.13;99790.06;5017160;28;20216;-64
2022/05/13 06:48:09;;;;;;;4.07;3.03;;;;;;;28.20;41.36;99780.06;5016189;28;20206;-63
2022/05/13 06:50:36;;;;;;;3.73;2.93;;;;;;;28.07;41.79;99773.34;5010056;28;20205;-63
2022/05/13 06:53:04;;;;;;;3.60;3.40;;;;;;;27.92;43.39;99774.78;5005420;28;20228;-64
2022/05/13 06:55:32;;;;;;;3.10;3.00;;;;;;;28.12;43.01;99765.81;5005508;28;20241;-64
2022/05/13 06:57:59;;;;;;;4.20;4.00;;;;;;;28.04;42.90;99764.88;5018139;28;20197;-64
2022/05/13 07:00:26;;;;;;;3.80;3.53;;;;;;;28.10;44.67;99761.66;5011131;28;20198;-64
2022/05/13 07:02:53;;;;;;;4.37;3.67;;;;;;;28.23;42.60;99761.31;5013294;28;20213;-64
2022/05/13 07:05:21;;;;;;;4.83;4.43;;;;;;;28.24;42.72;99752.41;5023346;28;20205;-64
2022/05/13 07:07:48;;;;;;;3.53;3.33;;;;;;;28.29;41.09;99765.97;5021900;28;20197;-63
2022/05/13 07:10:15;;;;;;;3.27;2.53;;;;;;;28.57;42.05;99754.34;5015816;28;20724;-64
2022/05/13 07:12:44;;;;;;;3.37;3.27;;;;;;;28.69;40.90;99752.34;5015941;28;20236;-63
2022/05/13 07:15:13;;;;;;;3.83;3.63;;;;;;;28.59;41.56;99752.41;5014540;28;20215;-63
2022/05/13 07:17:40;;;;;;;2.80;2.63;;;;;;;28.55;39.25;99751.88;5019199;28;20665;-64
2022/05/13 07:20:09;;;;;;;3.13;2.90;;;;;;;28.57;40.54;99749.06;5015805;28;20202;-65
2022/05/13 07:22:36;;;;;;;4.23;3.43;;;;;;;28.78;42.86;99747.00;5013165;28;20213;-63
2022/05/13 07:25:04;;;;;;;9.87;4.00;;;;;;;29.14;40.03;99759.09;5008184;28;20202;-64
2022/05/13 07:27:31;;;;;;;11.20;3.40;;;;;;;29.40;40.67;99753.84;5007430;28;20209;-64
2022/05/13 07:29:59;;;;;;;3.77;3.57;;;;;;;29.64;38.42;99755.75;5014293;28;20233;-63
2022/05/13 07:32:26;;;;;;;3.70;3.50;;;;;;;29.74;38.18;99745.88;5012835;28;20205;-64
2022/05/13 07:34:53;;;;;;;3.77;3.57;;;;;;;29.66;39.30;99749.31;5019569;28;20356;-63
2022/05/13 07:37:19;;;;;;;3.80;3.60;;;;;;;29.55;38.85;99743.50;5009118;28;20212;-64
2022/05/13 07:42:30;;;;;;;4.83;4.50;;;;;;;29.91;38.15;99747.63;5005094;28;20627;-63
2022/05/13 07:44:59;;;;;;;10.53;9.43;;;;;;;29.89;38.75;99732.94;5004735;28;20701;-63
2022/05/13 07:47:27;;;;;;;4.60;4.37;;;;;;;30.01;40.05;99742.19;5013586;28;20228;-63
2022/05/13 07:49:54;;;;;;;3.07;2.87;;;;;;;30.17;39.87;99743.06;5023025;28;20229;-63
2022/05/13 07:52:21;;;;;;;3.83;3.63;;;;;;;30.43;37.45;99736.84;5018070;28;20209;-63
2022/05/13 07:54:47;;;;;;;5.67;3.40;;;;;;;30.59;38.91;99732.38;5017723;28;20233;-64
2022/05/13 07:57:14;;;;;;;3.17;3.07;;;;;;;30.63;38.17;99728.38;5025232;28;20201;-63
2022/05/13 08:02:27;;;;;;;3.43;3.07;;;;;;;30.81;35.70;99736.16;5019832;28;20220;-63
2022/05/13 08:04:54;;;;;;;3.50;2.97;;;;;;;30.99;36.22;99731.53;5023785;28;20198;-64
2022/05/13 08:07:21;;;;;;;7.25;6.63;;;;;;;31.07;36.48;99736.81;5011808;28;20210;-63
2022/05/13 08:09:48;;;;;;;3.38;3.17;;;;;;;30.86;38.62;99733.03;5015043;28;20225;-63
2022/05/13 08:12:15;;;;;;;4.00;3.70;;;;;;;30.79;39.12;99727.56;5015392;28;20710;-63
2022/05/13 08:14:42;;;;;;;2.95;2.78;;;;;;;30.77;39.46;99726.88;5011447;28;21098;-64
2022/05/13 08:17:09;;;;;;;3.10;2.80;;;;;;;30.74;37.05;99714.00;5016787;28;20210;-64
2022/05/13 08:19:38;;;;;;;3.13;3.00;;;;;;;31.02;38.38;99728.53;5014401;28;20559;-64
2022/05/13 08:22:06;;;;;;;2.65;2.55;;;;;;;30.96;37.09;99729.22;5014246;28;20679;-63
2022/05/13 08:24:33;;;;;;;2.90;2.80;;;;;;;31.10;37.43;99727.69;5008900;28;20219;-64
2022/05/13 08:27:03;;;;;;;3.42;3.25;;;;;;;31.21;35.26;99727.34;5014261;28;20202;-63
2022/05/13 08:29:31;;;;;;;3.38;3.17;;;;;;;31.24;36.49;99722.50;5014502;28;20299;-64
2022/05/13 08:31:59;;;;;;;3.40;2.90;;;;;;;31.35;34.41;99728.44;5023272;28;20465;-63
2022/05/13 08:34:26;;;;;;;3.78;2.80;;;;;;;31.21;34.94;99722.84;5017823;28;20256;-63
2022/05/13 08:36:55;;;;;;;2.85;2.75;;;;;;;31.41;35.34;99728.59;5018133;28;20209;-63
2022/05/13 08:39:24;;;;;;;4.30;2.67;;;;;;;31.47;35.27;99727.09;5026723;28;20293;-63
2022/05/13 08:42:09;;;;;;;3.13;2.97;;;;;;;31.23;35.49;99720.88;5021027;28;20206;-63
2022/05/13 08:44:38;;;;;;;3.03;2.92;;;;;;;31.43;35.56;99720.47;5022043;28;20214;-64
2022/05/13 08:47:18;;;;;;;2.97;2.88;;;;;;;31.48;36.14;99713.66;5017685;28;20244;-64
2022/05/13 08:49:52;;;;;;;3.45;3.25;;;;;;;31.71;36.51;99709.28;5016981;28;20711;-63
2022/05/13 08:55:19;;;;;;;3.25;2.95;;;;;;;31.34;34.90;99705.63;5012073;28;20221;-64
2022/05/13 08:57:49;;;;;;;3.13;3.03;;;;;;;31.00;34.48;99708.50;5029138;28;20210;-63
2022/05/13 09:00:25;;;;;;;3.30;3.00;;;;;;;30.85;37.22;99710.19;5024514;28;20296;-63
2022/05/13 09:02:59;;;;;;;4.32;4.13;;;;;;;30.23;37.43;99687.84;5013611;28;20682;-63
2022/05/13 09:05:29;;;;;;;3.33;3.10;;;;;;;30.20;38.18;99689.84;5012477;28;20206;-63
2022/05/13 09:08:00;;;;;;;4.90;3.40;;;;;;;30.49;39.07;99688.53;5019075;28;20209;-63
2022/05/13 09:10:28;;;;;;;3.20;3.10;;;;;;;30.23;38.70;99687.84;5008732;28;20214;-63
2022/05/13 09:13:03;;;;;;;5.03;3.40;;;;;;;30.33;38.24;99683.22;5016910;28;20202;-64
2022/05/13 09:15:37;;;;;;;8.70;3.93;;;;;;;30.43;39.27;99678.63;5010525;28;20582;-63
2022/05/13 09:18:07;;;;;;;3.50;3.30;;;;;;;30.39;38.26;99671.97;5012344;28;20198;-63
2022/05/13 09:20:45;;;;;;;4.63;4.33;;;;;;;30.48;38.59;99676.28;5012564;28;20210;-63
2022/05/13 09:23:14;;;;;;;3.15;3.05;;;;;;;30.66;37.73;99674.31;5016270;28;20221;-63
2022/05/13 09:25:56;;;;;;;3.30;3.20;;;;;;;30.48;37.93;99671.00;5012587;28;20206;-63
2022/05/13 09:28:24;;;;;;;3.63;3.43;;;;;;;30.05;38.20;99659.72;5013911;28;20683;-63
2022/05/13 09:30:55;;;;;;;5.40;3.03;;;;;;;30.30;38.14;99662.41;5012247;28;20749;-63
2022/05/13 09:33:24;;;;;;;2.65;2.53;;;;;;;30.57;37.97;99656.75;5013888;28;20206;-65
2022/05/13 09:35:54;;;;;;;4.05;3.75;;;;;;;30.76;36.66;99650.31;5016204;28;20291;-64
2022/05/13 09:38:25;;;;;;;3.45;3.25;;;;;;;30.15;36.87;99639.25;5014501;28;20228;-63
2022/05/13 09:41:00;;;;;;;8.40;3.63;;;;;;;30.26;37.26;99639.91;5018331;28;20259;-64
2022/05/13 09:43:37;;;;;;;3.57;3.37;;;;;;;30.57;36.70;99641.72;5016435;28;20214;-65
2022/05/13 09:46:08;;;;;;;4.35;4.00;;;;;;;30.78;37.98;99640.38;5022660;28;20205;-65
2022/05/13 09:48:38;;;;;;;4.70;3.45;;;;;;;31.03;38.24;99634.84;5012613;28;20286;-64
2022/05/13 09:51:29;;;;;;;3.28;2.97;;;;;;;30.98;38.08;99629.25;5015202;28;20225;-66
2022/05/13 09:54:13;;;;;;;3.10;3.00;;;;;;;31.10;36.02;99629.69;5011896;28;20213;-65
2022/05/13 09:56:42;;;;;;;3.13;2.92;;;;;;;31.00;36.27;99624.59;5021248;28;20593;-64
2022/05/13 09:59:17;;;;;;;3.42;3.22;;;;;;;30.73;35.43;99621.53;5023750;28;20669;-64
2022/05/13 10:01:45;;;;;;;3.22;3.13;;;;;;;30.85;35.98;99614.88;5023833;28;20209;-64
2022/05/13 10:04:14;;;;;;;3.97;3.67;;;;;;;30.77;37.82;99613.06;5019870;28;20221;-64
2022/05/13 10:06:43;;;;;;;3.83;3.03;;;;;;;30.90;38.09;99608.06;5011206;28;20236;-64
2022/05/13 10:15:10;;;;;;;5.00;2.80;;;;;;;30.80;36.46;99586.25;5013362;28;20260;-64
2022/05/13 10:17:45;;;;;;;3.63;3.08;;;;;;;30.78;36.14;99588.25;5013326;28;20672;-64
2022/05/13 10:20:24;;;;;;;3.15;2.95;;;;;;;30.92;36.73;99584.88;5012059;28;20213;-64
2022/05/13 10:22:57;;;;;;;2.53;2.42;;;;;;;31.07;35.20;99575.25;5021956;28;20213;-64
2022/05/13 10:25:31;;;;;;;2.92;2.83;;;;;;;30.98;35.28;99576.31;5024296;28;20202;-64
2022/05/13 10:28:03;;;;;;;3.33;3.13;;;;;;;30.55;36.21;99576.72;5012790;28;20210;-63
2022/05/13 10:30:35;;;;;;;2.83;2.72;;;;;;;30.12;34.51;99572.63;5019911;28;20217;-64
2022/05/13 10:33:07;;;;;;;2.93;2.83;;;;;;;30.23;35.33;99571.47;5013863;28;20202;-64
2022/05/13 10:35:45;;;;;;;2.63;2.53;;;;;;;29.97;35.05;99564.56;5025647;28;20240;-64
2022/05/13 10:38:19;;;;;;;2.40;2.30;;;;;;;29.96;34.48;99565.53;5015520;28;20208;-64
2022/05/13 10:40:50;;;;;;;2.70;2.43;;;;;;;30.00;34.77;99555.47;5023849;28;20200;-63
2022/05/13 10:43:27;;;;;;;2.37;2.27;;;;;;;30.14;33.15;99555.63;5016189;28;20205;-64
2022/05/13 10:46:05;;;;;;;2.50;2.40;;;;;;;30.42;35.79;99550.81;5013058;28;20217;-64
2022/05/13 10:48:33;;;;;;;2.43;2.33;;;;;;;30.54;34.21;99551.25;5014323;28;20322;-64
2022/05/13 10:51:13;;;;;;;2.57;2.30;;;;;;;30.46;34.16;99548.66;5014011;28;20715;-64
2022/05/13 10:54:09;;;;;;;2.80;2.60;;;;;;;30.41;33.35;99546.50;5022869;28;20637;-64
2022/05/13 10:56:43;;;;;;;2.10;2.00;;;;;;;30.48;33.93;99531.59;5019949;28;20230;-62
2022/05/13 10:59:27;;;;;;;2.30;2.20;;;;;;;30.50;32.77;99536.75;5019557;28;20237;-62
2022/05/13 11:02:07;;;;;;;2.25;2.15;;;;;;;30.57;33.93;99532.38;5022642;28;20201;-63
2022/05/13 11:04:42;;;;;;;3.35;2.17;;;;;;;30.77;35.44;99533.66;5014328;28;20217;-63
2022/05/13 11:07:18;;;;;;;2.65;2.55;;;;;;;30.74;35.35;99518.09;5020231;28;21014;-63
2022/05/13 11:09:57;;;;;;;2.37;2.20;;;;;;;30.69;33.25;99517.81;5015951;28;20226;-63
2022/05/13 11:12:36;;;;;;;2.60;2.50;;;;;;;30.69;34.33;99513.34;5016279;28;20229;-63
2022/05/13 11:15:20;;;;;;;2.07;1.97;;;;;;;30.60;33.50;99519.66;5013330;28;20240;-63
2022/05/13 11:17:57;;;;;;;2.47;2.38;;;;;;;30.59;33.03;99507.44;5015726;28;20209;-63
2022/05/13 11:20:33;;;;;;;2.15;2.05;;;;;;;30.57;33.28;99512.06;5020014;28;20209;-63
2022/05/13 11:23:13;;;;;;;2.33;2.22;;;;;;;30.46;34.00;99504.50;5005917;28;20205;-63
2022/05/13 11:25:57;;;;;;;3.67;2.73;;;;;;;30.37;34.02;99494.09;5014555;28;20197;-63
2022/05/13 11:28:54;;;;;;;2.43;2.23;;;;;;;30.39;33.49;99497.38;5011562;28;20823;-63
2022/05/13 11:31:56;;;;;;;2.30;2.20;;;;;;;30.70;33.52;99487.69;5006911;28;20249;-64
2022/05/13 11:34:43;;;;;;;2.47;2.33;;;;;;;30.67;33.88;99485.38;4992394;28;20255;-63
2022/05/13 11:37:15;;;;;;;2.40;2.30;;;;;;;30.83;34.45;99480.00;5003630;28;20206;-63
2022/05/13 11:39:55;;;;;;;2.63;2.53;;;;;;;30.68;32.57;99476.44;5015987;28;20210;-63
2022/05/13 11:45:41;;;;;;;2.20;2.10;;;;;;;30.67;32.96;99459.75;5020015;28;20206;-64
2022/05/13 11:48:21;;;;;;;2.75;2.38;;;;;;;30.62;31.66;99454.16;5019777;28;20585;-63
2022/05/13 11:50:48;;;;;;;2.13;2.13;;;;;;;30.49;32.53;99453.06;5018173;28;20221;-63
2022/05/13 11:53:50;;;;;;;2.22;2.08;;;;;;;30.43;32.91;99445.81;5023896;28;20201;-64
2022/05/13 11:56:30;;;;;;;2.13;2.03;;;;;;;30.49;32.08;99455.69;5010017;28;20312;-63
2022/05/13 11:58:59;;;;;;;1.80;1.80;;;;;;;30.54;31.91;99448.06;5021405;28;20202;-63
2022/05/13 12:01:59;;;;;;;2.60;2.50;;;;;;;30.66;32.91;99441.41;5027700;28;20649;-63
2022/05/13 12:04:32;;;;;;;2.30;2.20;;;;;;;30.90;33.13;99435.97;5031850;28;20217;-63
2022/05/13 12:07:01;;;;;;;2.67;2.47;;;;;;;31.02;34.60;99429.28;5016672;28;20674;-65
2022/05/13 12:09:35;;;;;;;2.30;2.20;;;;;;;31.10;33.32;99426.59;5014742;28;20331;-63
2022/05/13 12:12:12;;;;;;;2.35;2.25;;;;;;;31.01;30.89;99427.66;5012514;28;20226;-63
2022/05/13 12:14:52;;;;;;;2.33;2.22;;;;;;;30.86;30.73;99420.63;5017348;28;20205;-63
2022/05/13 12:17:32;;;;;;;2.72;2.42;;;;;;;30.57;30.26;99422.06;5019678;28;20220;-63
2022/05/13 12:20:09;;;;;;;2.83;2.28;;;;;;;30.60;31.40;99412.97;5023784;28;20212;-60